createdAt,value
2023-03-05T00:00:18.548Z,989.7525
2023-03-05T00:00:48.551Z,989.7545
2023-03-05T00:01:18.557Z,989.7581
2023-03-05T00:01:48.549Z,989.748
2023-03-05T00:02:18.633Z,989.7492
2023-03-05T00:02:48.666Z,989.7493
2023-03-05T00:03:18.570Z,989.7414
2023-03-05T00:03:48.620Z,989.7393
2023-03-05T00:04:18.544Z,989.7389
2023-03-05T00:04:48.552Z,989.7307
2023-03-05T00:05:18.546Z,989.7253
2023-03-05T00:05:48.561Z,989.7153
2023-03-05T00:06:18.547Z,989.7201
2023-03-05T00:06:48.543Z,989.7222
2023-03-05T00:07:18.552Z,989.7274
2023-03-05T00:07:48.542Z,989.7347
2023-03-05T00:08:18.546Z,989.7468
2023-03-05T00:08:48.549Z,989.7374
2023-03-05T00:09:18.544Z,989.7431
2023-03-05T00:09:48.543Z,989.7418
2023-03-05T00:10:18.556Z,989.7333
2023-03-05T00:10:48.543Z,989.7249
2023-03-05T00:11:18.542Z,989.7141
2023-03-05T00:11:48.549Z,989.7115
2023-03-05T00:12:18.542Z,989.7112
2023-03-05T00:12:48.543Z,989.7228
2023-03-05T00:13:18.546Z,989.7008
2023-03-05T00:13:48.541Z,989.7153
2023-03-05T00:14:18.542Z,989.7257
2023-03-05T00:14:48.543Z,989.7333
2023-03-05T00:15:18.546Z,989.7406
2023-03-05T00:15:48.546Z,989.7469
2023-03-05T00:16:18.574Z,989.7531
2023-03-05T00:16:48.552Z,989.7477
2023-03-05T00:17:18.550Z,989.7424
2023-03-05T00:17:48.550Z,989.7411
2023-03-05T00:18:18.540Z,989.7371
2023-03-05T00:18:48.551Z,989.7324
2023-03-05T00:19:18.561Z,989.7277
2023-03-05T00:19:48.547Z,989.7364
2023-03-05T00:20:18.543Z,989.7432
2023-03-05T00:20:48.543Z,989.7449
2023-03-05T00:21:18.540Z,989.7371
2023-03-05T00:21:48.542Z,989.7357
2023-03-05T00:22:18.548Z,989.7285
2023-03-05T00:22:48.549Z,989.712
2023-03-05T00:23:18.545Z,989.6969
2023-03-05T00:23:48.546Z,989.6845
2023-03-05T00:24:18.598Z,989.6692
2023-03-05T00:24:48.545Z,989.6442
2023-03-05T00:25:18.539Z,989.6262
2023-03-05T00:25:48.540Z,989.6082
2023-03-05T00:26:18.545Z,989.599
2023-03-05T00:26:48.546Z,989.5862
2023-03-05T00:27:18.540Z,989.5787
2023-03-05T00:27:48.549Z,989.5559
2023-03-05T00:28:18.546Z,989.5563
2023-03-05T00:28:48.547Z,989.5641
2023-03-05T00:29:18.578Z,989.5503
2023-03-05T00:29:48.551Z,989.5413
2023-03-05T00:30:18.546Z,989.5424
2023-03-05T00:30:48.597Z,989.5421
2023-03-05T00:31:18.588Z,989.54
2023-03-05T00:31:48.554Z,989.5416
2023-03-05T00:32:18.606Z,989.552
2023-03-05T00:32:48.547Z,989.5603
2023-03-05T00:33:18.543Z,989.5559
2023-03-05T00:33:48.543Z,989.5413
2023-03-05T00:34:18.555Z,989.5406
2023-03-05T00:34:48.551Z,989.5294
2023-03-05T00:35:18.555Z,989.5198
2023-03-05T00:35:48.629Z,989.5154
2023-03-05T00:36:18.545Z,989.5164
2023-03-05T00:36:48.559Z,989.5101
2023-03-05T00:37:18.553Z,989.5071
2023-03-05T00:37:48.551Z,989.5059
2023-03-05T00:38:18.547Z,989.4957
2023-03-05T00:38:48.547Z,989.4931
2023-03-05T00:39:18.547Z,989.4895
2023-03-05T00:39:48.549Z,989.4787
2023-03-05T00:40:18.672Z,989.4851
2023-03-05T00:40:48.546Z,989.4905
2023-03-05T00:41:18.545Z,989.4805
2023-03-05T00:41:48.546Z,989.4872
2023-03-05T00:42:18.546Z,989.4844
2023-03-05T00:42:48.550Z,989.4686
2023-03-05T00:43:18.547Z,989.4657
2023-03-05T00:43:48.553Z,989.4534
2023-03-05T00:44:18.551Z,989.4609
2023-03-05T00:44:48.545Z,989.4634
2023-03-05T00:45:18.544Z,989.4797
2023-03-05T00:45:48.546Z,989.4712
2023-03-05T00:46:18.579Z,989.4644
2023-03-05T00:46:48.623Z,989.4498
2023-03-05T00:47:18.593Z,989.4498
2023-03-05T00:47:48.551Z,989.4352
2023-03-05T00:48:18.545Z,989.4103
2023-03-05T00:48:48.545Z,989.403
2023-03-05T00:49:18.562Z,989.4001
2023-03-05T00:49:48.554Z,989.3832
2023-03-05T00:50:18.549Z,989.3704
2023-03-05T00:50:48.547Z,989.3667
2023-03-05T00:51:18.547Z,989.368
2023-03-05T00:51:48.557Z,989.3738
2023-03-05T00:52:18.551Z,989.3718
2023-03-05T00:52:48.553Z,989.364
2023-03-05T00:53:18.548Z,989.3492
2023-03-05T00:53:48.550Z,989.3434
2023-03-05T00:54:18.549Z,989.3443
2023-03-05T00:54:48.546Z,989.3411
2023-03-05T00:55:18.546Z,989.3412
2023-03-05T00:55:48.546Z,989.3526
2023-03-05T00:56:18.551Z,989.3466
2023-03-05T00:56:48.544Z,989.3442
2023-03-05T00:57:18.553Z,989.3369
2023-03-05T00:57:48.545Z,989.332
2023-03-05T00:58:18.551Z,989.3289
2023-03-05T00:58:48.549Z,989.3156
2023-03-05T00:59:18.555Z,989.2986
2023-03-05T00:59:48.556Z,989.2922
2023-03-05T01:00:18.552Z,989.285
2023-03-05T01:00:48.545Z,989.2749
2023-03-05T01:01:18.580Z,989.2594
2023-03-05T01:01:48.599Z,989.2599
2023-03-05T01:02:18.559Z,989.2536
2023-03-05T01:02:48.543Z,989.2695
2023-03-05T01:03:18.545Z,989.2537
2023-03-05T01:03:48.539Z,989.2313
2023-03-05T01:04:18.560Z,989.2048
2023-03-05T01:04:48.596Z,989.1908
2023-03-05T01:05:18.618Z,989.1926
2023-03-05T01:05:48.547Z,989.1827
2023-03-05T01:06:18.565Z,989.1689
2023-03-05T01:06:48.542Z,989.1538
2023-03-05T01:07:18.534Z,989.1342
2023-03-05T01:07:48.532Z,989.1289
2023-03-05T01:08:18.534Z,989.1387
2023-03-05T01:08:48.534Z,989.1194
2023-03-05T01:09:18.532Z,989.1035
2023-03-05T01:09:48.530Z,989.1038
2023-03-05T01:10:18.532Z,989.098
2023-03-05T01:10:48.531Z,989.0778
2023-03-05T01:11:18.532Z,989.0972
2023-03-05T01:11:48.541Z,989.1032
2023-03-05T01:12:18.546Z,989.1151
2023-03-05T01:12:48.530Z,989.1234
2023-03-05T01:13:18.531Z,989.1155
2023-03-05T01:13:48.526Z,989.1038
2023-03-05T01:14:18.537Z,989.0913
2023-03-05T01:14:48.528Z,989.0839
2023-03-05T01:15:18.531Z,989.0753
2023-03-05T01:15:48.560Z,989.0898
2023-03-05T01:16:18.663Z,989.1131
2023-03-05T01:16:48.531Z,989.1013
2023-03-05T01:17:18.534Z,989.1027
2023-03-05T01:17:48.537Z,989.0967
2023-03-05T01:18:18.525Z,989.0787
2023-03-05T01:18:48.550Z,989.079
2023-03-05T01:19:18.535Z,989.0764
2023-03-05T01:19:48.533Z,989.0845
2023-03-05T01:20:18.527Z,989.0726
2023-03-05T01:20:48.526Z,989.0705
2023-03-05T01:21:18.530Z,989.0812
2023-03-05T01:21:48.529Z,989.0843
2023-03-05T01:22:18.526Z,989.1031
2023-03-05T01:22:48.523Z,989.104
2023-03-05T01:23:18.529Z,989.1102
2023-03-05T01:23:48.527Z,989.1166
2023-03-05T01:24:18.521Z,989.0974
2023-03-05T01:24:48.525Z,989.1057
2023-03-05T01:25:18.538Z,989.1188
2023-03-05T01:25:48.529Z,989.1161
2023-03-05T01:26:18.532Z,989.1241
2023-03-05T01:26:48.533Z,989.1361
2023-03-05T01:27:18.525Z,989.1418
2023-03-05T01:27:48.521Z,989.165
2023-03-05T01:28:18.524Z,989.1699
2023-03-05T01:28:48.530Z,989.1749
2023-03-05T01:29:18.523Z,989.1823
2023-03-05T01:29:48.521Z,989.1826
2023-03-05T01:30:18.522Z,989.1921
2023-03-05T01:30:48.521Z,989.1891
2023-03-05T01:31:18.545Z,989.1891
2023-03-05T01:31:48.607Z,989.1862
2023-03-05T01:32:18.549Z,989.1694
2023-03-05T01:32:48.527Z,989.1847
2023-03-05T01:33:18.528Z,989.1845
2023-03-05T01:33:48.530Z,989.1816
2023-03-05T01:34:18.520Z,989.1775
2023-03-05T01:34:48.520Z,989.1641
2023-03-05T01:35:18.566Z,989.1543
2023-03-05T01:35:48.563Z,989.128
2023-03-05T01:36:18.525Z,989.1211
2023-03-05T01:36:48.522Z,989.1041
2023-03-05T01:37:18.522Z,989.0873
2023-03-05T01:37:48.539Z,989.0809
2023-03-05T01:38:18.529Z,989.075
2023-03-05T01:38:48.522Z,989.0706
2023-03-05T01:39:18.520Z,989.061
2023-03-05T01:39:48.530Z,989.0447
2023-03-05T01:40:18.524Z,989.0327
2023-03-05T01:40:48.524Z,989.0181
2023-03-05T01:41:18.523Z,989.0117
2023-03-05T01:41:48.525Z,989.0084
2023-03-05T01:42:18.524Z,989.0001
2023-03-05T01:42:48.522Z,988.9902
2023-03-05T01:43:18.525Z,988.9749
2023-03-05T01:43:48.539Z,988.9673
2023-03-05T01:44:18.524Z,988.9609
2023-03-05T01:44:48.521Z,988.9698
2023-03-05T01:45:18.538Z,988.9745
2023-03-05T01:45:48.553Z,988.9767
2023-03-05T01:46:18.526Z,988.9592
2023-03-05T01:46:48.532Z,988.9764
2023-03-05T01:47:18.533Z,988.9758
2023-03-05T01:47:48.522Z,988.9763
2023-03-05T01:48:18.525Z,988.97
2023-03-05T01:48:48.526Z,988.9511
2023-03-05T01:49:18.533Z,988.9325
2023-03-05T01:49:48.525Z,988.9067
2023-03-05T01:50:18.535Z,988.8774
2023-03-05T01:50:48.527Z,988.8672
2023-03-05T01:51:18.522Z,988.861
2023-03-05T01:51:48.526Z,988.8398
2023-03-05T01:52:18.524Z,988.8105
2023-03-05T01:52:48.525Z,988.7922
2023-03-05T01:53:18.534Z,988.7891
2023-03-05T01:53:48.524Z,988.7698
2023-03-05T01:54:18.528Z,988.7612
2023-03-05T01:54:48.522Z,988.7633
2023-03-05T01:55:18.538Z,988.7325
2023-03-05T01:55:48.533Z,988.7092
2023-03-05T01:56:18.537Z,988.6955
2023-03-05T01:56:48.524Z,988.6805
2023-03-05T01:57:18.526Z,988.6725
2023-03-05T01:57:48.538Z,988.6492
2023-03-05T01:58:18.524Z,988.6378
2023-03-05T01:58:48.530Z,988.6133
2023-03-05T01:59:18.536Z,988.5988
2023-03-05T01:59:48.530Z,988.5911
2023-03-05T02:00:18.523Z,988.5958
2023-03-05T02:00:48.585Z,988.5948
2023-03-05T02:01:18.561Z,988.5936
2023-03-05T02:01:48.520Z,988.5804
2023-03-05T02:02:18.525Z,988.5733
2023-03-05T02:02:48.522Z,988.5613
2023-03-05T02:03:18.534Z,988.5636
2023-03-05T02:03:48.603Z,988.5467
2023-03-05T02:04:18.525Z,988.5365
2023-03-05T02:04:48.529Z,988.5229
2023-03-05T02:05:18.532Z,988.4945
2023-03-05T02:05:48.520Z,988.4775
2023-03-05T02:06:18.519Z,988.4694
2023-03-05T02:06:48.549Z,988.4553
2023-03-05T02:07:18.548Z,988.4426
2023-03-05T02:07:48.539Z,988.4303
2023-03-05T02:08:18.530Z,988.4274
2023-03-05T02:08:48.519Z,988.4091
2023-03-05T02:09:18.520Z,988.3937
2023-03-05T02:09:48.534Z,988.3894
2023-03-05T02:10:18.523Z,988.3931
2023-03-05T02:10:48.524Z,988.3979
2023-03-05T02:11:18.524Z,988.4012
2023-03-05T02:11:48.521Z,988.4075
2023-03-05T02:12:18.526Z,988.405
2023-03-05T02:12:48.522Z,988.4063
2023-03-05T02:13:18.522Z,988.4003
2023-03-05T02:13:48.526Z,988.3987
2023-03-05T02:14:18.529Z,988.3912
2023-03-05T02:14:48.525Z,988.3787
2023-03-05T02:15:18.527Z,988.3553
2023-03-05T02:15:48.522Z,988.3497
2023-03-05T02:16:18.600Z,988.3389
2023-03-05T02:16:48.575Z,988.3292
2023-03-05T02:17:18.523Z,988.3304
2023-03-05T02:17:48.526Z,988.3329
2023-03-05T02:18:18.525Z,988.3413
2023-03-05T02:18:48.530Z,988.3445
2023-03-05T02:19:18.533Z,988.3533
2023-03-05T02:19:48.543Z,988.3562
2023-03-05T02:20:18.538Z,988.348
2023-03-05T02:20:48.527Z,988.353
2023-03-05T02:21:18.618Z,988.3567
2023-03-05T02:21:48.531Z,988.3503
2023-03-05T02:22:18.530Z,988.3439
2023-03-05T02:22:48.527Z,988.3284
2023-03-05T02:23:18.538Z,988.3264
2023-03-05T02:23:48.528Z,988.3189
2023-03-05T02:24:18.525Z,988.3156
2023-03-05T02:24:48.536Z,988.3152
2023-03-05T02:25:18.546Z,988.3154
2023-03-05T02:25:48.524Z,988.2969
2023-03-05T02:26:18.615Z,988.2869
2023-03-05T02:26:48.526Z,988.2672
2023-03-05T02:27:18.525Z,988.2586
2023-03-05T02:27:48.527Z,988.2342
2023-03-05T02:28:18.529Z,988.236
2023-03-05T02:28:48.525Z,988.2335
2023-03-05T02:29:18.552Z,988.2117
2023-03-05T02:29:48.536Z,988.2014
2023-03-05T02:30:18.530Z,988.1755
2023-03-05T02:30:48.527Z,988.1703
2023-03-05T02:31:18.575Z,988.158
2023-03-05T02:31:48.596Z,988.1353
2023-03-05T02:32:18.588Z,988.1242
2023-03-05T02:32:48.609Z,988.12
2023-03-05T02:33:18.527Z,988.1231
2023-03-05T02:33:48.539Z,988.1092
2023-03-05T02:34:18.537Z,988.1116
2023-03-05T02:34:48.549Z,988.1062
2023-03-05T02:35:18.668Z,988.1083
2023-03-05T02:35:48.582Z,988.1117
2023-03-05T02:36:18.532Z,988.104
2023-03-05T02:36:48.526Z,988.0968
2023-03-05T02:37:18.530Z,988.0945
2023-03-05T02:37:48.531Z,988.0831
2023-03-05T02:38:18.529Z,988.0736
2023-03-05T02:38:48.525Z,988.058
2023-03-05T02:39:18.536Z,988.0481
2023-03-05T02:39:48.533Z,988.0396
2023-03-05T02:40:18.532Z,988.0209
2023-03-05T02:40:48.532Z,988.0201
2023-03-05T02:41:18.533Z,988.0072
2023-03-05T02:41:48.525Z,987.9993
2023-03-05T02:42:18.557Z,987.9743
2023-03-05T02:42:48.529Z,987.9636
2023-03-05T02:43:18.528Z,987.9621
2023-03-05T02:43:48.534Z,987.9373
2023-03-05T02:44:18.526Z,987.9202
2023-03-05T02:44:48.543Z,987.8969
2023-03-05T02:45:18.546Z,987.8677
2023-03-05T02:45:48.611Z,987.8481
2023-03-05T02:46:18.531Z,987.8433
2023-03-05T02:46:48.528Z,987.8363
2023-03-05T02:47:18.528Z,987.8258
2023-03-05T02:47:48.534Z,987.8245
2023-03-05T02:48:18.535Z,987.8156
2023-03-05T02:48:48.530Z,987.7982
2023-03-05T02:49:18.536Z,987.7755
2023-03-05T02:49:48.535Z,987.7644
2023-03-05T02:50:18.527Z,987.7578
2023-03-05T02:50:48.533Z,987.7319
2023-03-05T02:51:18.535Z,987.7156
2023-03-05T02:51:48.537Z,987.7032
2023-03-05T02:52:18.538Z,987.6888
2023-03-05T02:52:48.537Z,987.6763
2023-03-05T02:53:18.533Z,987.6581
2023-03-05T02:53:48.535Z,987.6442
2023-03-05T02:54:18.529Z,987.6356
2023-03-05T02:54:48.543Z,987.625
2023-03-05T02:55:18.535Z,987.6239
2023-03-05T02:55:48.538Z,987.6163
2023-03-05T02:56:18.528Z,987.6158
2023-03-05T02:56:48.529Z,987.6055
2023-03-05T02:57:18.529Z,987.616
2023-03-05T02:57:48.530Z,987.6205
2023-03-05T02:58:18.528Z,987.62
2023-03-05T02:58:48.529Z,987.6088
2023-03-05T02:59:18.532Z,987.5893
2023-03-05T02:59:48.559Z,987.5767
2023-03-05T03:00:18.531Z,987.5617
2023-03-05T03:00:48.530Z,987.5466
2023-03-05T03:01:18.607Z,987.5289
2023-03-05T03:01:48.530Z,987.5137
2023-03-05T03:02:18.537Z,987.4877
2023-03-05T03:02:48.590Z,987.4678
2023-03-05T03:03:18.583Z,987.4486
2023-03-05T03:03:48.542Z,987.4372
2023-03-05T03:04:18.530Z,987.4331
2023-03-05T03:04:48.531Z,987.4285
2023-03-05T03:05:18.543Z,987.4201
2023-03-05T03:05:48.530Z,987.4216
2023-03-05T03:06:18.532Z,987.4329
2023-03-05T03:06:48.536Z,987.4254
2023-03-05T03:07:18.533Z,987.428
2023-03-05T03:07:48.531Z,987.4199
2023-03-05T03:08:18.532Z,987.408
2023-03-05T03:08:48.531Z,987.4034
2023-03-05T03:09:18.531Z,987.3926
2023-03-05T03:09:48.541Z,987.3887
2023-03-05T03:10:18.546Z,987.3806
2023-03-05T03:10:48.529Z,987.3794
2023-03-05T03:11:18.534Z,987.3677
2023-03-05T03:11:48.567Z,987.3497
2023-03-05T03:12:18.540Z,987.3391
2023-03-05T03:12:48.540Z,987.3303
2023-03-05T03:13:18.533Z,987.3159
2023-03-05T03:13:48.534Z,987.308
2023-03-05T03:14:18.532Z,987.2891
2023-03-05T03:14:48.539Z,987.2778
2023-03-05T03:15:18.536Z,987.2724
2023-03-05T03:15:48.536Z,987.2574
2023-03-05T03:16:18.651Z,987.2428
2023-03-05T03:16:48.625Z,987.2351
2023-03-05T03:17:18.538Z,987.2326
2023-03-05T03:17:48.535Z,987.2098
2023-03-05T03:18:18.571Z,987.1898
2023-03-05T03:18:48.535Z,987.1863
2023-03-05T03:19:18.535Z,987.173
2023-03-05T03:19:48.529Z,987.1708
2023-03-05T03:20:18.530Z,987.173
2023-03-05T03:20:48.531Z,987.17
2023-03-05T03:21:18.534Z,987.1753
2023-03-05T03:21:48.534Z,987.1575
2023-03-05T03:22:18.539Z,987.1436
2023-03-05T03:22:48.533Z,987.1203
2023-03-05T03:23:18.539Z,987.103
2023-03-05T03:23:48.534Z,987.0981
2023-03-05T03:24:18.532Z,987.0706
2023-03-05T03:24:48.541Z,987.0589
2023-03-05T03:25:18.532Z,987.0285
2023-03-05T03:25:48.533Z,987.0244
2023-03-05T03:26:18.532Z,987.0262
2023-03-05T03:26:48.534Z,987.0125
2023-03-05T03:27:18.536Z,987.008
2023-03-05T03:27:48.539Z,987.0028
2023-03-05T03:28:18.555Z,986.9952
2023-03-05T03:28:48.537Z,986.9966
2023-03-05T03:29:18.544Z,986.9892
2023-03-05T03:29:48.545Z,986.975
2023-03-05T03:30:18.537Z,986.9709
2023-03-05T03:30:48.555Z,986.9757
2023-03-05T03:31:18.604Z,986.9678
2023-03-05T03:31:48.539Z,986.9367
2023-03-05T03:32:18.586Z,986.916
2023-03-05T03:32:48.533Z,986.916
2023-03-05T03:33:18.534Z,986.9155
2023-03-05T03:33:48.544Z,986.9111
2023-03-05T03:34:18.544Z,986.9156
2023-03-05T03:34:48.544Z,986.9089
2023-03-05T03:35:18.553Z,986.9064
2023-03-05T03:35:48.614Z,986.8972
2023-03-05T03:36:18.535Z,986.884
2023-03-05T03:36:48.540Z,986.8619
2023-03-05T03:37:18.535Z,986.8649
2023-03-05T03:37:48.538Z,986.8549
2023-03-05T03:38:18.544Z,986.8453
2023-03-05T03:38:48.543Z,986.8364
2023-03-05T03:39:18.539Z,986.8308
2023-03-05T03:39:48.540Z,986.819
2023-03-05T03:40:18.538Z,986.8013
2023-03-05T03:40:48.542Z,986.8118
2023-03-05T03:41:18.544Z,986.8219
2023-03-05T03:41:48.541Z,986.8141
2023-03-05T03:42:18.539Z,986.8089
2023-03-05T03:42:48.539Z,986.7986
2023-03-05T03:43:18.537Z,986.7872
2023-03-05T03:43:48.557Z,986.8027
2023-03-05T03:44:18.553Z,986.7842
2023-03-05T03:44:48.548Z,986.7634
2023-03-05T03:45:18.538Z,986.7482
2023-03-05T03:45:48.585Z,986.7449
2023-03-05T03:46:18.594Z,986.7355
2023-03-05T03:46:48.559Z,986.7231
2023-03-05T03:47:18.546Z,986.7059
2023-03-05T03:47:48.536Z,986.6873
2023-03-05T03:48:18.557Z,986.6739
2023-03-05T03:48:48.536Z,986.6646
2023-03-05T03:49:18.538Z,986.6498
2023-03-05T03:49:48.538Z,986.6486
2023-03-05T03:50:18.543Z,986.6404
2023-03-05T03:50:48.538Z,986.6158
2023-03-05T03:51:18.552Z,986.6245
2023-03-05T03:51:48.551Z,986.6058
2023-03-05T03:52:18.540Z,986.5897
2023-03-05T03:52:48.539Z,986.5839
2023-03-05T03:53:18.543Z,986.5668
2023-03-05T03:53:48.549Z,986.5608
2023-03-05T03:54:18.553Z,986.5474
2023-03-05T03:54:48.537Z,986.5266
2023-03-05T03:55:18.541Z,986.5114
2023-03-05T03:55:48.541Z,986.4995
2023-03-05T03:56:18.539Z,986.4934
2023-03-05T03:56:48.537Z,986.496
2023-03-05T03:57:18.541Z,986.4955
2023-03-05T03:57:48.572Z,986.5051
2023-03-05T03:58:18.548Z,986.4914
2023-03-05T03:58:48.548Z,986.4832
2023-03-05T03:59:18.540Z,986.4844
2023-03-05T03:59:48.541Z,986.497
2023-03-05T04:00:18.548Z,986.4952
2023-03-05T04:00:48.544Z,986.4844
2023-03-05T04:01:18.560Z,986.4771
2023-03-05T04:01:48.537Z,986.4701
2023-03-05T04:02:18.631Z,986.4777
2023-03-05T04:02:48.620Z,986.4928
2023-03-05T04:03:18.544Z,986.5103
2023-03-05T04:03:48.539Z,986.5258
2023-03-05T04:04:18.646Z,986.5491
2023-03-05T04:04:48.543Z,986.5652
2023-03-05T04:05:18.542Z,986.5681
2023-03-05T04:05:48.542Z,986.5692
2023-03-05T04:06:18.538Z,986.5711
2023-03-05T04:06:48.538Z,986.5977
2023-03-05T04:07:18.545Z,986.5964
2023-03-05T04:07:48.539Z,986.6256
2023-03-05T04:08:18.545Z,986.6292
2023-03-05T04:08:48.544Z,986.642
2023-03-05T04:09:18.541Z,986.629
2023-03-05T04:09:48.553Z,986.6242
2023-03-05T04:10:18.545Z,986.6223
2023-03-05T04:10:48.538Z,986.615
2023-03-05T04:11:18.540Z,986.6023
2023-03-05T04:11:48.545Z,986.5812
2023-03-05T04:12:18.541Z,986.5676
2023-03-05T04:12:48.554Z,986.5594
2023-03-05T04:13:18.542Z,986.5502
2023-03-05T04:13:48.547Z,986.5538
2023-03-05T04:14:18.540Z,986.5342
2023-03-05T04:14:48.554Z,986.5425
2023-03-05T04:15:18.546Z,986.5527
2023-03-05T04:15:48.621Z,986.5492
2023-03-05T04:16:18.620Z,986.5591
2023-03-05T04:16:48.556Z,986.5406
2023-03-05T04:17:18.545Z,986.5623
2023-03-05T04:17:48.541Z,986.5708
2023-03-05T04:18:18.559Z,986.5682
2023-03-05T04:18:48.539Z,986.5622
2023-03-05T04:19:18.540Z,986.5597
2023-03-05T04:19:48.562Z,986.5634
2023-03-05T04:20:18.542Z,986.5522
2023-03-05T04:20:48.562Z,986.5627
2023-03-05T04:21:18.544Z,986.5488
2023-03-05T04:21:48.546Z,986.5499
2023-03-05T04:22:18.556Z,986.555
2023-03-05T04:22:48.553Z,986.5478
2023-03-05T04:23:18.543Z,986.5604
2023-03-05T04:23:48.542Z,986.5547
2023-03-05T04:24:18.547Z,986.5814
2023-03-05T04:24:48.543Z,986.5808
2023-03-05T04:25:18.559Z,986.577
2023-03-05T04:25:48.540Z,986.575
2023-03-05T04:26:18.545Z,986.5725
2023-03-05T04:26:48.546Z,986.5832
2023-03-05T04:27:18.543Z,986.5856
2023-03-05T04:27:48.551Z,986.598
2023-03-05T04:28:18.542Z,986.5964
2023-03-05T04:28:48.544Z,986.5886
2023-03-05T04:29:18.544Z,986.5881
2023-03-05T04:29:48.559Z,986.5923
2023-03-05T04:30:18.543Z,986.5835
2023-03-05T04:30:48.602Z,986.5856
2023-03-05T04:31:18.559Z,986.5811
2023-03-05T04:31:48.544Z,986.5901
2023-03-05T04:32:18.572Z,986.563
2023-03-05T04:32:48.540Z,986.5923
2023-03-05T04:33:18.544Z,986.5762
2023-03-05T04:33:48.536Z,986.5989
2023-03-05T04:34:18.538Z,986.5826
2023-03-05T04:34:48.540Z,986.5861
2023-03-05T04:35:18.612Z,986.5776
2023-03-05T04:35:48.723Z,986.5626
2023-03-05T04:36:18.539Z,986.5474
2023-03-05T04:36:48.536Z,986.5474
2023-03-05T04:37:18.538Z,986.5345
2023-03-05T04:37:48.546Z,986.5072
2023-03-05T04:38:18.545Z,986.5034
2023-03-05T04:38:48.535Z,986.5051
2023-03-05T04:39:18.540Z,986.4982
2023-03-05T04:39:48.539Z,986.4808
2023-03-05T04:40:18.537Z,986.457
2023-03-05T04:40:48.537Z,986.4361
2023-03-05T04:41:18.534Z,986.4601
2023-03-05T04:41:48.542Z,986.462
2023-03-05T04:42:18.544Z,986.4815
2023-03-05T04:42:48.542Z,986.4669
2023-03-05T04:43:18.543Z,986.4429
2023-03-05T04:43:48.536Z,986.452
2023-03-05T04:44:18.542Z,986.4365
2023-03-05T04:44:48.556Z,986.4221
2023-03-05T04:45:18.534Z,986.4065
2023-03-05T04:45:48.535Z,986.4129
2023-03-05T04:46:18.543Z,986.4253
2023-03-05T04:46:48.642Z,986.4028
2023-03-05T04:47:18.535Z,986.4166
2023-03-05T04:47:48.535Z,986.448
2023-03-05T04:48:18.536Z,986.4457
2023-03-05T04:48:48.538Z,986.4345
2023-03-05T04:49:18.546Z,986.4494
2023-03-05T04:49:48.540Z,986.4534
2023-03-05T04:50:18.547Z,986.4564
2023-03-05T04:50:48.537Z,986.4467
2023-03-05T04:51:18.541Z,986.4333
2023-03-05T04:51:48.574Z,986.4363
2023-03-05T04:52:18.566Z,986.4325
2023-03-05T04:52:48.536Z,986.4114
2023-03-05T04:53:18.541Z,986.3987
2023-03-05T04:53:48.545Z,986.4072
2023-03-05T04:54:18.538Z,986.3795
2023-03-05T04:54:48.535Z,986.3842
2023-03-05T04:55:18.536Z,986.377
2023-03-05T04:55:48.536Z,986.3886
2023-03-05T04:56:18.580Z,986.4084
2023-03-05T04:56:48.536Z,986.3786
2023-03-05T04:57:18.550Z,986.366
2023-03-05T04:57:48.538Z,986.3325
2023-03-05T04:58:18.535Z,986.3055
2023-03-05T04:58:48.542Z,986.2885
2023-03-05T04:59:18.537Z,986.2734
2023-03-05T04:59:48.534Z,986.248
2023-03-05T05:00:18.535Z,986.2601
2023-03-05T05:00:48.544Z,986.2609
2023-03-05T05:01:18.550Z,986.2272
2023-03-05T05:01:48.589Z,986.2288
2023-03-05T05:02:18.539Z,986.212
2023-03-05T05:02:48.577Z,986.2101
2023-03-05T05:03:18.654Z,986.195
2023-03-05T05:03:48.537Z,986.1972
2023-03-05T05:04:18.537Z,986.2054
2023-03-05T05:04:48.534Z,986.2192
2023-03-05T05:05:18.566Z,986.2145
2023-03-05T05:05:48.540Z,986.1973
2023-03-05T05:06:18.542Z,986.1942
2023-03-05T05:06:48.540Z,986.1989
2023-03-05T05:07:18.537Z,986.1973
2023-03-05T05:07:48.558Z,986.1858
2023-03-05T05:08:18.544Z,986.1699
2023-03-05T05:08:48.536Z,986.1891
2023-03-05T05:09:18.538Z,986.1998
2023-03-05T05:09:48.538Z,986.2156
2023-03-05T05:10:18.542Z,986.2123
2023-03-05T05:10:48.558Z,986.2131
2023-03-05T05:11:18.577Z,986.2213
2023-03-05T05:11:48.544Z,986.1923
2023-03-05T05:12:18.537Z,986.173
2023-03-05T05:12:48.539Z,986.1404
2023-03-05T05:13:18.546Z,986.1323
2023-03-05T05:13:48.545Z,986.12
2023-03-05T05:14:18.548Z,986.1114
2023-03-05T05:14:48.536Z,986.0792
2023-03-05T05:15:18.546Z,986.0708
2023-03-05T05:15:48.611Z,986.0877
2023-03-05T05:16:18.574Z,986.1044
2023-03-05T05:16:48.541Z,986.0893
2023-03-05T05:17:18.536Z,986.0957
2023-03-05T05:17:48.541Z,986.0829
2023-03-05T05:18:18.582Z,986.0556
2023-03-05T05:18:48.537Z,986.072
2023-03-05T05:19:18.621Z,986.0778
2023-03-05T05:19:48.540Z,986.0867
2023-03-05T05:20:18.536Z,986.1125
2023-03-05T05:20:48.540Z,986.1019
2023-03-05T05:21:18.549Z,986.1083
2023-03-05T05:21:48.538Z,986.08
2023-03-05T05:22:18.537Z,986.0641
2023-03-05T05:22:48.573Z,986.0575
2023-03-05T05:23:18.536Z,986.0607
2023-03-05T05:23:48.548Z,986.06
2023-03-05T05:24:18.538Z,986.0508
2023-03-05T05:24:48.545Z,986.0385
2023-03-05T05:25:18.542Z,986.021
2023-03-05T05:25:48.544Z,986.0069
2023-03-05T05:26:18.548Z,986.0011
2023-03-05T05:26:48.540Z,985.9962
2023-03-05T05:27:18.540Z,985.9683
2023-03-05T05:27:48.546Z,985.9475
2023-03-05T05:28:18.542Z,985.9367
2023-03-05T05:28:48.552Z,985.9348
2023-03-05T05:29:18.543Z,985.9088
2023-03-05T05:29:48.537Z,985.9236
2023-03-05T05:30:18.537Z,985.9233
2023-03-05T05:30:48.541Z,985.9348
2023-03-05T05:31:18.655Z,985.9512
2023-03-05T05:31:48.589Z,985.949
2023-03-05T05:32:18.577Z,985.9317
2023-03-05T05:32:48.540Z,985.9269
2023-03-05T05:33:18.542Z,985.9138
2023-03-05T05:33:49.930Z,985.8983
2023-03-05T05:34:18.542Z,985.8797
2023-03-05T05:34:48.547Z,985.899
2023-03-05T05:35:18.625Z,985.8713
2023-03-05T05:35:48.618Z,985.8744
2023-03-05T05:36:18.547Z,985.8566
2023-03-05T05:36:48.542Z,985.8438
2023-03-05T05:37:18.543Z,985.8336
2023-03-05T05:37:48.539Z,985.8383
2023-03-05T05:38:18.578Z,985.8447
2023-03-05T05:38:48.547Z,985.8315
2023-03-05T05:39:20.419Z,985.8256
2023-03-05T05:39:48.544Z,985.8094
2023-03-05T05:40:18.550Z,985.7992
2023-03-05T05:40:48.545Z,985.8003
2023-03-05T05:41:18.552Z,985.7914
2023-03-05T05:41:48.553Z,985.7782
2023-03-05T05:42:18.549Z,985.7799
2023-03-05T05:42:48.556Z,985.7668
2023-03-05T05:43:18.544Z,985.757
2023-03-05T05:43:48.566Z,985.7589
2023-03-05T05:44:18.547Z,985.7501
2023-03-05T05:44:48.546Z,985.7372
2023-03-05T05:45:18.585Z,985.7269
2023-03-05T05:45:48.619Z,985.7288
2023-03-05T05:46:18.665Z,985.7109
2023-03-05T05:46:48.586Z,985.7054
2023-03-05T05:47:18.551Z,985.6906
2023-03-05T05:47:48.551Z,985.6917
2023-03-05T05:48:18.560Z,985.6694
2023-03-05T05:48:48.554Z,985.6462
2023-03-05T05:49:18.551Z,985.652
2023-03-05T05:49:48.554Z,985.6611
2023-03-05T05:50:18.554Z,985.6225
2023-03-05T05:50:48.555Z,985.627
2023-03-05T05:51:18.547Z,985.6284
2023-03-05T05:51:48.550Z,985.6235
2023-03-05T05:52:18.552Z,985.6178
2023-03-05T05:52:48.549Z,985.6071
2023-03-05T05:53:18.561Z,985.5988